createdAt,value
2022-09-26T00:01:08.083Z,21.59
2022-09-26T00:03:35.463Z,21.59
2022-09-26T00:06:03.480Z,21.60
2022-09-26T00:08:50.911Z,21.59
2022-09-26T00:11:20.027Z,21.60
2022-09-26T00:13:47.295Z,21.60
2022-09-26T00:16:15.597Z,21.60
2022-09-26T00:18:42.752Z,21.60
2022-09-26T00:21:12.086Z,21.59
2022-09-26T00:23:39.471Z,21.59
2022-09-26T00:26:07.521Z,21.58
2022-09-26T00:28:34.570Z,21.56
2022-09-26T00:31:08.429Z,21.56
2022-09-26T00:33:35.807Z,21.55
2022-09-26T00:36:03.153Z,21.56
2022-09-26T00:38:30.437Z,21.54
2022-09-26T00:41:01.168Z,21.52
2022-09-26T00:43:32.670Z,21.51
2022-09-26T00:46:14.620Z,21.49
2022-09-26T00:48:42.467Z,21.50
2022-09-26T00:51:09.978Z,21.47
2022-09-26T00:53:39.613Z,21.47
2022-09-26T00:56:10.298Z,21.45
2022-09-26T00:58:43.339Z,21.44
2022-09-26T01:01:10.567Z,21.45
2022-09-26T01:03:40.133Z,21.42
2022-09-26T01:06:07.052Z,21.40
2022-09-26T01:08:42.939Z,21.42
2022-09-26T01:11:14.780Z,21.42
2022-09-26T01:13:44.343Z,21.42
2022-09-26T01:16:11.047Z,21.39
2022-09-26T01:18:38.293Z,21.41
2022-09-26T01:21:14.292Z,21.42
2022-09-26T01:23:50.912Z,21.41
2022-09-26T01:26:29.924Z,21.41
2022-09-26T01:29:15.577Z,21.38
2022-09-26T01:32:20.182Z,21.38
2022-09-26T01:34:51.161Z,21.37
2022-09-26T01:37:26.339Z,21.38
2022-09-26T01:39:59.270Z,21.35
2022-09-26T01:42:31.940Z,21.35
2022-09-26T01:45:05.191Z,21.33
2022-09-26T01:47:38.142Z,21.33
2022-09-26T01:50:20.369Z,21.30
2022-09-26T01:53:00.166Z,21.29
2022-09-26T01:55:37.576Z,21.29
2022-09-26T01:58:14.467Z,21.27
2022-09-26T02:00:50.633Z,21.24
2022-09-26T02:03:23.074Z,21.26
2022-09-26T02:05:49.979Z,21.24
2022-09-26T02:08:19.612Z,21.23
2022-09-26T02:11:02.636Z,21.23
2022-09-26T02:13:32.244Z,21.22
2022-09-26T02:16:02.532Z,21.21
2022-09-26T02:18:32.232Z,21.19
2022-09-26T02:21:02.362Z,21.19
2022-09-26T02:23:29.116Z,21.16
2022-09-26T02:25:56.093Z,21.16
2022-09-26T02:28:23.663Z,21.14
2022-09-26T02:30:54.030Z,21.15
2022-09-26T02:33:21.515Z,21.13
2022-09-26T02:35:57.820Z,21.12
2022-09-26T02:38:26.683Z,21.11
2022-09-26T02:41:04.186Z,21.09
2022-09-26T02:43:31.066Z,21.08
2022-09-26T02:46:06.000Z,21.08
2022-09-26T02:48:38.676Z,21.06
2022-09-26T02:51:10.698Z,21.03
2022-09-26T02:53:56.577Z,21.02
2022-09-26T02:56:42.265Z,21.02
2022-09-26T02:59:22.999Z,21.00
2022-09-26T03:01:49.872Z,21.00
2022-09-26T03:04:52.563Z,21.01
2022-09-26T03:07:29.657Z,21.00
2022-09-26T03:09:57.803Z,20.98
2022-09-26T03:12:26.200Z,20.95
2022-09-26T03:14:58.452Z,20.96
2022-09-26T03:17:29.330Z,20.94
2022-09-26T03:20:07.769Z,20.93
2022-09-26T03:22:34.645Z,20.92
2022-09-26T03:25:02.352Z,20.92
2022-09-26T03:27:29.568Z,20.91
2022-09-26T03:29:56.545Z,20.90
2022-09-26T03:32:23.524Z,20.88
2022-09-26T03:34:51.498Z,20.88
2022-09-26T03:37:18.493Z,20.86
2022-09-26T03:39:45.506Z,20.86
2022-09-26T03:42:14.549Z,20.85
2022-09-26T03:44:44.352Z,20.83
2022-09-26T03:47:11.340Z,20.82
2022-09-26T03:49:39.146Z,20.83
2022-09-26T03:52:07.925Z,20.81
2022-09-26T03:54:35.108Z,20.80
2022-09-26T03:57:01.999Z,20.79
2022-09-26T03:59:28.637Z,20.80
2022-09-26T04:01:55.825Z,20.79
2022-09-26T04:04:22.752Z,20.76
2022-09-26T04:06:51.580Z,20.75
2022-09-26T04:09:19.229Z,20.75
2022-09-26T04:11:46.935Z,20.76
2022-09-26T04:14:13.898Z,20.75
2022-09-26T04:16:40.939Z,20.75
2022-09-26T04:19:07.861Z,20.73
2022-09-26T04:21:42.041Z,20.72
2022-09-26T04:24:13.945Z,20.72
2022-09-26T04:26:42.016Z,20.71
2022-09-26T04:29:09.678Z,20.72
2022-09-26T04:31:37.238Z,20.71
2022-09-26T04:34:05.378Z,20.71
2022-09-26T04:36:32.938Z,20.69
2022-09-26T04:39:00.884Z,20.68
2022-09-26T04:41:28.772Z,20.68
2022-09-26T04:43:56.153Z,20.67
2022-09-26T04:46:29.635Z,20.66
2022-09-26T04:48:57.855Z,20.65
2022-09-26T04:51:25.397Z,20.66
2022-09-26T04:53:52.541Z,20.64
2022-09-26T04:56:20.996Z,20.64
2022-09-26T04:58:48.350Z,20.63
2022-09-26T05:01:16.569Z,20.63
2022-09-26T05:03:43.554Z,20.63
2022-09-26T05:06:11.504Z,20.61
2022-09-26T05:08:39.632Z,20.60
2022-09-26T05:11:06.886Z,20.60
2022-09-26T05:13:34.027Z,20.60
2022-09-26T05:16:02.095Z,20.60
2022-09-26T05:18:29.113Z,20.60
2022-09-26T05:20:56.772Z,20.58
2022-09-26T05:23:46.166Z,20.62
2022-09-26T05:26:21.658Z,20.61
2022-09-26T05:28:50.354Z,20.66
2022-09-26T05:31:18.226Z,20.69
2022-09-26T05:33:46.753Z,20.71
2022-09-26T05:36:13.844Z,20.75
2022-09-26T05:38:40.860Z,20.77
2022-09-26T05:41:07.851Z,20.81
2022-09-26T05:43:35.422Z,20.86
2022-09-26T05:46:06.791Z,20.91
2022-09-26T05:48:34.400Z,20.95
2022-09-26T05:51:09.597Z,21.00
2022-09-26T05:53:36.257Z,21.05
2022-09-26T05:56:03.467Z,21.10
2022-09-26T05:58:34.671Z,21.14
2022-09-26T06:01:09.138Z,21.18
2022-09-26T06:03:36.687Z,21.22
2022-09-26T06:06:04.842Z,21.26
2022-09-26T06:08:32.192Z,21.29
2022-09-26T06:11:03.657Z,21.33
2022-09-26T06:13:31.211Z,21.36
2022-09-26T06:16:02.166Z,21.40
2022-09-26T06:18:29.176Z,21.43
2022-09-26T06:20:56.156Z,21.45
2022-09-26T06:23:23.086Z,21.48
2022-09-26T06:25:50.438Z,21.49
2022-09-26T06:28:18.530Z,21.53
2022-09-26T06:30:45.645Z,21.55
2022-09-26T06:33:12.865Z,21.57
2022-09-26T06:35:39.796Z,21.60
2022-09-26T06:38:07.024Z,21.62
2022-09-26T06:40:34.297Z,21.65
2022-09-26T06:43:01.295Z,21.66
2022-09-26T06:45:28.650Z,21.68
2022-09-26T06:47:55.762Z,21.69
2022-09-26T06:50:23.152Z,21.69
2022-09-26T06:52:50.089Z,21.71
2022-09-26T06:55:16.796Z,21.72
2022-09-26T06:57:44.366Z,21.71
2022-09-26T07:00:13.173Z,21.72
2022-09-26T07:02:49.067Z,21.72
2022-09-26T07:05:16.558Z,21.73
2022-09-26T07:07:45.927Z,21.73
2022-09-26T07:10:13.860Z,21.74
2022-09-26T07:12:45.370Z,21.74
2022-09-26T07:15:14.446Z,21.74
2022-09-26T07:17:41.853Z,21.74
2022-09-26T07:20:10.020Z,21.77
2022-09-26T07:22:37.190Z,21.77
2022-09-26T07:25:09.868Z,21.77
2022-09-26T07:27:36.865Z,21.79
2022-09-26T07:30:04.921Z,21.79
2022-09-26T07:32:31.927Z,21.77
2022-09-26T07:35:08.504Z,21.79
2022-09-26T07:37:35.411Z,21.80
2022-09-26T07:40:02.409Z,21.76
2022-09-26T07:42:29.411Z,21.75
2022-09-26T07:48:04.532Z,21.79
2022-09-26T07:50:31.633Z,21.82
2022-09-26T07:52:58.784Z,21.76
2022-09-26T07:55:27.207Z,21.73
2022-09-26T07:57:53.867Z,21.74
2022-09-26T08:00:21.639Z,21.73
2022-09-26T08:02:48.914Z,21.71
2022-09-26T08:05:22.255Z,21.69
2022-09-26T08:07:49.497Z,21.69
2022-09-26T08:10:21.386Z,21.69
2022-09-26T08:12:48.796Z,21.70
2022-09-26T08:15:15.821Z,21.72
2022-09-26T08:17:43.559Z,21.54
2022-09-26T08:20:11.121Z,21.37
2022-09-26T08:22:37.773Z,21.28
2022-09-26T08:25:06.703Z,21.18
2022-09-26T08:27:34.071Z,21.12
2022-09-26T08:30:01.252Z,21.12
2022-09-26T08:32:27.924Z,21.05
2022-09-26T08:35:05.729Z,20.95
2022-09-26T08:37:32.446Z,20.88
2022-09-26T08:40:01.085Z,20.84
2022-09-26T08:42:28.900Z,20.75
2022-09-26T08:45:33.219Z,20.72
2022-09-26T08:48:07.057Z,20.59
2022-09-26T08:50:52.591Z,20.55
2022-09-26T08:53:22.970Z,20.52
2022-09-26T08:55:50.379Z,20.43
2022-09-26T08:58:26.581Z,20.41
2022-09-26T09:01:11.448Z,20.35
2022-09-26T09:03:40.994Z,20.35
2022-09-26T09:06:13.822Z,20.30
2022-09-26T09:08:44.868Z,20.38
2022-09-26T09:11:40.384Z,20.45
2022-09-26T09:14:31.780Z,20.47
2022-09-26T09:17:12.911Z,20.49
2022-09-26T09:20:12.464Z,20.53
2022-09-26T09:22:57.274Z,20.55
2022-09-26T09:25:51.516Z,20.60
2022-09-26T09:28:41.040Z,20.66
2022-09-26T09:31:16.226Z,20.69
2022-09-26T09:33:49.216Z,20.72
2022-09-26T09:36:22.305Z,20.75
2022-09-26T09:38:51.110Z,20.75
2022-09-26T09:41:23.786Z,20.79
2022-09-26T09:44:01.186Z,20.81
2022-09-26T09:46:29.529Z,20.84
2022-09-26T09:49:03.369Z,20.87
2022-09-26T09:51:38.358Z,20.88
2022-09-26T09:54:15.901Z,20.92
2022-09-26T09:56:42.936Z,20.94
2022-09-26T09:59:10.167Z,20.96
2022-09-26T10:01:41.709Z,20.99
2022-09-26T10:04:09.076Z,21.02
2022-09-26T10:06:46.580Z,21.05
2022-09-26T10:09:39.079Z,21.08
2022-09-26T10:12:10.978Z,21.08
2022-09-26T10:14:43.013Z,21.12
2022-09-26T10:17:11.218Z,21.12
2022-09-26T10:19:39.854Z,21.13
2022-09-26T10:22:11.700Z,21.16
2022-09-26T10:24:41.435Z,21.17
2022-09-26T10:27:19.352Z,21.20
2022-09-26T10:29:47.608Z,21.20
2022-09-26T10:32:18.190Z,21.25
2022-09-26T10:37:37.282Z,21.23
2022-09-26T10:40:37.988Z,21.22
2022-09-26T10:43:14.756Z,21.22
2022-09-26T10:45:41.606Z,21.21
2022-09-26T10:48:08.648Z,21.22
2022-09-26T10:50:35.609Z,21.21
2022-09-26T10:53:08.734Z,21.22
2022-09-26T10:55:41.074Z,21.27
2022-09-26T10:58:13.686Z,21.28
2022-09-26T11:00:43.010Z,21.26
2022-09-26T11:03:11.809Z,21.27
2022-09-26T11:05:49.736Z,21.25
2022-09-26T11:08:16.911Z,21.25
2022-09-26T11:10:46.132Z,21.24
2022-09-26T11:13:18.108Z,21.23
2022-09-26T11:15:54.918Z,21.24
2022-09-26T11:18:27.727Z,21.23
2022-09-26T11:20:57.719Z,21.22
2022-09-26T11:23:35.468Z,21.21
2022-09-26T11:26:12.860Z,21.19
2022-09-26T11:28:44.216Z,21.17
2022-09-26T11:31:19.251Z,21.18
2022-09-26T11:33:46.459Z,21.18
2022-09-26T11:36:22.911Z,21.21
2022-09-26T11:38:55.856Z,21.24
2022-09-26T11:41:42.486Z,21.22
2022-09-26T11:44:22.248Z,21.22
2022-09-26T11:46:58.589Z,21.20
2022-09-26T11:49:34.778Z,21.18
2022-09-26T11:52:02.397Z,21.16
2022-09-26T11:54:33.739Z,21.15
2022-09-26T11:57:03.954Z,21.14
2022-09-26T11:59:40.960Z,21.14
2022-09-26T12:02:16.033Z,21.11
2022-09-26T12:04:56.292Z,21.10
2022-09-26T12:07:35.414Z,21.10
2022-09-26T12:10:11.976Z,21.10
2022-09-26T12:12:48.750Z,21.07
2022-09-26T12:15:23.927Z,21.06
2022-09-26T12:17:51.059Z,21.05
2022-09-26T12:20:20.584Z,21.04
2022-09-26T12:22:51.170Z,21.05
2022-09-26T12:25:26.736Z,21.05
2022-09-26T12:27:53.826Z,21.04
2022-09-26T12:30:24.739Z,21.05
2022-09-26T12:35:29.457Z,21.05
2022-09-26T12:38:07.460Z,21.05
2022-09-26T12:40:40.320Z,21.09
2022-09-26T12:43:16.716Z,21.11
2022-09-26T12:45:57.658Z,21.09
2022-09-26T12:48:34.649Z,21.07
2022-09-26T12:51:10.768Z,21.07
2022-09-26T12:53:44.940Z,21.05
2022-09-26T12:56:13.220Z,21.04
2022-09-26T12:58:40.389Z,21.03
2022-09-26T13:01:16.877Z,21.01
2022-09-26T13:03:47.268Z,20.99
2022-09-26T13:06:17.737Z,20.99
2022-09-26T13:08:46.064Z,20.98
2022-09-26T13:11:23.571Z,20.97
2022-09-26T13:14:06.556Z,20.97
2022-09-26T13:16:42.612Z,20.98
2022-09-26T13:19:16.357Z,20.98
2022-09-26T13:21:48.567Z,20.97
2022-09-26T13:24:21.622Z,20.99
2022-09-26T13:26:54.467Z,20.97
2022-09-26T13:29:26.933Z,20.97
2022-09-26T13:32:04.293Z,20.97
2022-09-26T13:34:36.109Z,20.96
2022-09-26T13:37:04.760Z,20.96
2022-09-26T13:39:32.751Z,20.95
2022-09-26T13:42:01.748Z,20.93
2022-09-26T13:44:28.931Z,20.92
2022-09-26T13:47:08.643Z,20.91
2022-09-26T13:49:44.809Z,20.90
2022-09-26T13:52:20.817Z,20.90
2022-09-26T13:54:59.310Z,20.88
2022-09-26T13:57:32.149Z,20.88
2022-09-26T13:59:59.096Z,20.86
2022-09-26T14:02:29.601Z,20.85
2022-09-26T14:05:02.986Z,20.83
2022-09-26T14:08:11.352Z,20.83
2022-09-26T14:10:42.135Z,20.81
2022-09-26T14:13:33.600Z,20.79
2022-09-26T14:16:02.038Z,20.78
2022-09-26T14:18:44.389Z,20.77
2022-09-26T14:21:12.965Z,20.76
2022-09-26T14:23:46.939Z,20.76
2022-09-26T14:26:14.515Z,20.75
2022-09-26T14:28:48.103Z,20.74
2022-09-26T14:31:34.055Z,20.74
2022-09-26T14:34:18.536Z,20.73
2022-09-26T14:36:46.871Z,20.73
2022-09-26T14:39:42.945Z,20.72
2022-09-26T14:42:23.087Z,20.71
2022-09-26T14:45:08.244Z,20.70
2022-09-26T14:47:40.529Z,20.69
2022-09-26T14:50:14.380Z,20.68
2022-09-26T14:52:52.952Z,20.69
2022-09-26T14:55:20.306Z,20.66
2022-09-26T14:57:48.625Z,20.68
2022-09-26T15:00:54.083Z,20.67
2022-09-26T15:03:21.742Z,20.66
2022-09-26T15:05:49.515Z,20.66
2022-09-26T15:08:22.621Z,20.65
2022-09-26T15:10:49.739Z,20.64
2022-09-26T15:13:34.639Z,20.63
2022-09-26T15:16:10.106Z,20.65
2022-09-26T15:18:41.779Z,20.63
2022-09-26T15:21:20.499Z,20.62
2022-09-26T15:23:49.630Z,20.61
2022-09-26T15:26:18.457Z,20.61
2022-09-26T15:28:47.386Z,20.61
2022-09-26T15:31:23.194Z,20.60
2022-09-26T15:33:51.194Z,20.60
2022-09-26T15:36:18.134Z,20.61
2022-09-26T15:38:47.406Z,20.63
2022-09-26T15:41:37.839Z,20.62
2022-09-26T15:44:07.761Z,20.60
2022-09-26T15:46:34.479Z,20.61
2022-09-26T15:49:01.311Z,20.59
2022-09-26T15:51:36.251Z,20.59
2022-09-26T15:54:05.745Z,20.59
2022-09-26T15:56:36.150Z,20.59
2022-09-26T15:59:02.843Z,20.58
2022-09-26T16:01:31.168Z,20.57
2022-09-26T16:04:03.047Z,20.58
2022-09-26T16:06:41.966Z,20.56
2022-09-26T16:09:11.711Z,20.56
2022-09-26T16:11:58.393Z,20.56
2022-09-26T16:14:26.982Z,20.55
2022-09-26T16:17:13.718Z,20.53
2022-09-26T16:19:45.016Z,20.52
2022-09-26T16:22:41.065Z,20.52
2022-09-26T16:25:19.375Z,20.52
2022-09-26T16:27:59.745Z,20.51
2022-09-26T16:30:30.153Z,20.49
2022-09-26T16:33:14.067Z,20.49
2022-09-26T16:35:45.552Z,20.48
2022-09-26T16:38:14.942Z,20.47
2022-09-26T16:40:49.345Z,20.46
2022-09-26T16:43:19.291Z,20.46
2022-09-26T16:45:48.716Z,20.46
2022-09-26T16:48:33.803Z,20.44
2022-09-26T16:51:17.339Z,20.43
2022-09-26T16:53:45.915Z,20.44
2022-09-26T16:56:29.603Z,20.41
2022-09-26T16:59:01.274Z,20.41
2022-09-26T17:01:46.893Z,20.39
2022-09-26T17:04:22.494Z,20.39
2022-09-26T17:06:49.110Z,20.38
2022-09-26T17:09:15.735Z,20.38
2022-09-26T17:11:42.760Z,20.37
2022-09-26T17:14:16.530Z,20.37
2022-09-26T17:16:48.674Z,20.35
2022-09-26T17:19:16.864Z,20.34
2022-09-26T17:21:44.540Z,20.34
2022-09-26T17:24:15.135Z,20.34
2022-09-26T17:26:46.060Z,20.32
2022-09-26T17:29:17.559Z,20.32
2022-09-26T17:31:45.037Z,20.30
2022-09-26T17:34:26.545Z,20.29
2022-09-26T17:36:58.635Z,20.28
2022-09-26T17:39:29.735Z,20.29
2022-09-26T17:42:01.877Z,20.26
2022-09-26T17:44:28.493Z,20.27
2022-09-26T17:46:56.369Z,20.26
2022-09-26T17:49:23.053Z,20.28
2022-09-26T17:51:49.785Z,20.29
2022-09-26T17:54:17.742Z,20.32
2022-09-26T17:56:44.622Z,20.35
2022-09-26T17:59:23.265Z,20.40
2022-09-26T18:01:55.210Z,20.46
2022-09-26T18:04:27.470Z,20.50
2022-09-26T18:06:55.168Z,20.52
2022-09-26T18:09:21.988Z,20.55
2022-09-26T18:12:01.019Z,20.58
2022-09-26T18:14:29.703Z,20.62
2022-09-26T18:16:56.378Z,20.65
2022-09-26T18:19:23.017Z,20.66
2022-09-26T18:21:55.572Z,20.71
2022-09-26T18:24:26.779Z,20.74
2022-09-26T18:26:57.189Z,20.76
2022-09-26T18:29:44.023Z,20.79
2022-09-26T18:32:23.486Z,20.83
2022-09-26T18:35:05.221Z,20.85
2022-09-26T18:37:31.849Z,20.88
2022-09-26T18:40:03.636Z,20.90
2022-09-26T18:42:31.947Z,20.92
2022-09-26T18:45:08.792Z,20.96
2022-09-26T18:47:42.021Z,20.97
2022-09-26T18:50:30.037Z,20.98
2022-09-26T18:52:56.610Z,20.99
2022-09-26T18:55:43.315Z,21.00
2022-09-26T18:58:24.757Z,21.00
2022-09-26T19:00:55.417Z,21.02
2022-09-26T19:03:27.166Z,21.03
2022-09-26T19:05:59.433Z,21.03
2022-09-26T19:08:35.360Z,21.04
2022-09-26T19:11:04.231Z,21.08
2022-09-26T19:13:31.624Z,21.06
2022-09-26T19:15:58.707Z,21.08
2022-09-26T19:18:25.615Z,21.07
2022-09-26T19:20:52.925Z,21.07
2022-09-26T19:23:19.708Z,21.09
2022-09-26T19:25:46.337Z,21.10
2022-09-26T19:28:17.033Z,21.13
2022-09-26T19:30:44.099Z,21.10
2022-09-26T19:33:12.237Z,21.07
2022-09-26T19:35:40.090Z,21.06
2022-09-26T19:38:16.326Z,21.05
2022-09-26T19:40:48.430Z,21.08
2022-09-26T19:43:16.514Z,21.06
2022-09-26T19:45:43.605Z,21.07
2022-09-26T19:48:12.808Z,21.04
2022-09-26T19:50:40.006Z,21.05
2022-09-26T19:53:12.721Z,21.05
2022-09-26T19:55:39.876Z,21.05
2022-09-26T19:58:14.528Z,21.06
2022-09-26T20:00:44.928Z,21.04
2022-09-26T20:03:16.066Z,21.04
2022-09-26T20:05:42.631Z,21.03
2022-09-26T20:08:14.533Z,21.01
2022-09-26T20:10:41.190Z,21.01
2022-09-26T20:13:07.752Z,21.02
2022-09-26T20:15:34.444Z,21.00
2022-09-26T20:18:01.114Z,20.97
2022-09-26T20:20:27.914Z,20.96
2022-09-26T20:22:55.432Z,20.92
2022-09-26T20:25:26.811Z,20.91
2022-09-26T20:27:54.268Z,20.90
2022-09-26T20:30:56.568Z,20.88
2022-09-26T20:33:24.134Z,20.86
2022-09-26T20:36:01.687Z,20.85
2022-09-26T20:38:30.748Z,20.84
2022-09-26T20:41:12.714Z,20.82
2022-09-26T20:43:40.263Z,20.81
2022-09-26T20:46:08.941Z,20.80
2022-09-26T20:48:36.594Z,20.78
2022-09-26T20:51:04.674Z,20.79
2022-09-26T20:53:33.372Z,20.77
2022-09-26T20:56:04.064Z,20.77
2022-09-26T20:58:30.737Z,20.76
2022-09-26T21:00:59.561Z,20.75
2022-09-26T21:03:28.272Z,20.74
2022-09-26T21:05:54.920Z,20.74
2022-09-26T21:08:26.546Z,20.72
2022-09-26T21:10:53.268Z,20.72
2022-09-26T21:13:19.899Z,20.70
2022-09-26T21:15:46.509Z,20.70
2022-09-26T21:18:27.247Z,20.67
2022-09-26T21:20:54.269Z,20.65
2022-09-26T21:23:21.043Z,20.65
2022-09-26T21:25:47.773Z,20.64
2022-09-26T21:28:26.502Z,20.64
2022-09-26T21:30:54.988Z,20.63
2022-09-26T21:33:26.708Z,20.66
2022-09-26T21:35:53.733Z,20.66
2022-09-26T21:38:20.699Z,20.62
2022-09-26T21:40:48.984Z,20.60
2022-09-26T21:43:17.587Z,20.58
2022-09-26T21:45:45.371Z,20.56
2022-09-26T21:48:13.063Z,20.55
2022-09-26T21:50:42.104Z,20.53
2022-09-26T21:53:14.518Z,20.51
2022-09-26T21:55:43.371Z,20.52
2022-09-26T21:58:13.291Z,20.48
2022-09-26T22:00:40.417Z,20.48
2022-09-26T22:03:08.345Z,20.47
2022-09-26T22:05:36.109Z,20.50
2022-09-26T22:08:02.786Z,20.50
2022-09-26T22:10:29.588Z,20.50
2022-09-26T22:12:56.541Z,20.52
2022-09-26T22:15:23.277Z,20.54
2022-09-26T22:17:49.978Z,20.57
2022-09-26T22:20:16.727Z,20.60
2022-09-26T22:22:44.498Z,20.65
2022-09-26T22:25:12.736Z,20.69
2022-09-26T22:27:40.779Z,20.73
2022-09-26T22:30:08.285Z,20.76
2022-09-26T22:32:35.043Z,20.81
2022-09-26T22:35:02.304Z,20.83
2022-09-26T22:37:28.922Z,20.87
2022-09-26T22:39:55.583Z,20.90
2022-09-26T22:42:22.278Z,20.94
2022-09-26T22:44:58.621Z,20.96
2022-09-26T22:47:25.231Z,21.00
2022-09-26T22:49:52.204Z,21.04
2022-09-26T22:52:18.778Z,21.06
2022-09-26T22:54:45.559Z,21.09
2022-09-26T22:57:12.154Z,21.11
2022-09-26T22:59:40.192Z,21.14
2022-09-26T23:02:07.132Z,21.15
2022-09-26T23:04:58.102Z,21.18
2022-09-26T23:07:25.066Z,21.20
2022-09-26T23:09:51.913Z,21.20
2022-09-26T23:12:19.426Z,21.22
2022-09-26T23:14:46.028Z,21.23
2022-09-26T23:17:13.241Z,21.24
2022-09-26T23:19:40.604Z,21.26
2022-09-26T23:22:07.635Z,21.27
2022-09-26T23:24:34.609Z,21.29
2022-09-26T23:27:01.782Z,21.29
2022-09-26T23:29:28.333Z,21.30
2022-09-26T23:31:55.270Z,21.29
2022-09-26T23:34:22.389Z,21.30
2022-09-26T23:36:49.293Z,21.32
2022-09-26T23:39:16.230Z,21.33
2022-09-26T23:41:43.207Z,21.33
2022-09-26T23:44:10.830Z,21.33
2022-09-26T23:46:37.847Z,21.33
2022-09-26T23:49:04.874Z,21.35
2022-09-26T23:51:31.908Z,21.35
2022-09-26T23:53:58.868Z,21.37
2022-09-26T23:56:25.821Z,21.39
2022-09-26T23:58:55.911Z,21.39
